Time;durP1;ratioP1;P1;durP2;ratioP2;P2;SDS_P1;SDS_P2;PMS_P1;PMS_P2;Temp;Humidity;BMP_temperature;BMP_pressure;BME280_temperature;BME280_humidity;BME280_pressure;Samples;Min_cycle;Max_cycle;Signal;HPM_P1;HPM_P2
2021/10/03 00:00:49;;;;;;;3.53;3.20;;;12.30;94.10;;;;;;5099356;28;20200;-87
2021/10/03 00:03:22;;;;;;;4.45;3.40;;;12.30;94.00;;;;;;5102815;28;20264;-87
2021/10/03 00:05:52;;;;;;;4.13;3.40;;;12.30;93.80;;;;;;5102711;28;20200;-89
2021/10/03 00:08:21;;;;;;;3.40;3.10;;;12.20;94.00;;;;;;5095120;28;20192;-87
2021/10/03 00:10:50;;;;;;;5.60;3.70;;;12.20;93.90;;;;;;5101133;28;20204;-87
2021/10/03 00:13:18;;;;;;;3.40;3.10;;;12.20;94.00;;;;;;5100871;28;20220;-88
2021/10/03 00:15:45;;;;;;;3.88;3.42;;;12.20;94.00;;;;;;5088937;28;20209;-87
2021/10/03 00:18:14;;;;;;;3.45;3.15;;;12.20;94.20;;;;;;5103842;28;20220;-87
2021/10/03 00:20:42;;;;;;;3.28;2.97;;;12.20;94.00;;;;;;5101581;28;20199;-88
2021/10/03 00:23:10;;;;;;;3.67;2.80;;;12.20;93.90;;;;;;5093313;28;20272;-87
2021/10/03 00:25:38;;;;;;;3.50;3.20;;;12.20;93.70;;;;;;5094274;28;20194;-87
2021/10/03 00:28:07;;;;;;;3.70;3.30;;;12.10;93.90;;;;;;5103803;28;20232;-87
2021/10/03 00:30:35;;;;;;;4.07;3.17;;;12.10;93.80;;;;;;5093945;28;20212;-88
2021/10/03 00:33:02;;;;;;;4.03;3.25;;;12.10;93.70;;;;;;5099818;28;20231;-88
2021/10/03 00:35:29;;;;;;;3.72;3.42;;;12.10;93.90;;;;;;5100883;28;20260;-87
2021/10/03 00:37:59;;;;;;;3.72;2.92;;;12.00;93.80;;;;;;5094132;28;20239;-87
2021/10/03 00:40:26;;;;;;;3.67;3.00;;;12.10;93.50;;;;;;5099076;28;20204;-87
2021/10/03 00:42:55;;;;;;;3.30;3.00;;;12.00;93.60;;;;;;5093760;28;20229;-88
2021/10/03 00:45:22;;;;;;;5.50;2.78;;;12.00;93.60;;;;;;5094615;28;20206;-88
2021/10/03 00:47:49;;;;;;;3.42;3.10;;;12.00;93.70;;;;;;5089704;28;20239;-87
2021/10/03 00:50:17;;;;;;;3.72;2.83;;;12.10;93.30;;;;;;5095952;28;20190;-88
2021/10/03 00:52:45;;;;;;;3.20;2.90;;;12.10;93.00;;;;;;5094176;28;20300;-87
2021/10/03 00:55:13;;;;;;;4.78;2.83;;;12.10;92.70;;;;;;5102458;28;20236;-87
2021/10/03 00:57:41;;;;;;;4.20;2.78;;;12.10;92.90;;;;;;5094270;28;20567;-87
2021/10/03 01:00:15;;;;;;;3.03;2.45;;;12.10;92.60;;;;;;5095576;28;20220;-87
2021/10/03 01:02:42;;;;;;;4.53;3.15;;;12.10;92.60;;;;;;5098357;28;20220;-87
2021/10/03 01:05:10;;;;;;;3.00;2.70;;;12.20;92.60;;;;;;5097925;28;20303;-87
2021/10/03 01:07:37;;;;;;;3.22;2.92;;;12.10;92.20;;;;;;5099639;28;20280;-88
2021/10/03 01:10:06;;;;;;;6.43;2.97;;;12.10;92.10;;;;;;5101035;28;20232;-87
2021/10/03 01:12:34;;;;;;;3.67;2.80;;;12.10;92.20;;;;;;5096760;28;20275;-88
2021/10/03 01:15:01;;;;;;;3.70;2.70;;;12.10;92.00;;;;;;5098661;28;20194;-87
2021/10/03 01:17:29;;;;;;;4.18;3.20;;;12.10;91.80;;;;;;5102354;28;20244;-87
2021/10/03 01:19:56;;;;;;;4.20;2.65;;;12.10;91.90;;;;;;5101047;28;20211;-87
2021/10/03 01:22:25;;;;;;;3.10;2.80;;;12.10;92.10;;;;;;5100398;28;20234;-87
2021/10/03 01:24:53;;;;;;;3.65;2.83;;;12.10;92.20;;;;;;5092447;28;20233;-88
2021/10/03 01:27:20;;;;;;;3.13;2.83;;;12.00;92.30;;;;;;5096451;28;20229;-87
2021/10/03 01:29:49;;;;;;;2.88;2.63;;;12.00;92.20;;;;;;5102009;28;20296;-87
2021/10/03 01:32:17;;;;;;;3.15;2.85;;;12.00;92.10;;;;;;5100400;28;20235;-88
2021/10/03 01:34:44;;;;;;;3.65;3.15;;;12.00;92.00;;;;;;5103239;28;20259;-88
2021/10/03 01:37:11;;;;;;;3.30;3.00;;;11.90;91.90;;;;;;5100320;28;20240;-87
2021/10/03 01:39:40;;;;;;;3.80;3.00;;;11.90;92.10;;;;;;5102718;28;20223;-87
2021/10/03 01:42:07;;;;;;;3.67;2.60;;;11.90;91.90;;;;;;5095248;28;20315;-87
2021/10/03 01:44:35;;;;;;;3.90;2.95;;;12.00;91.80;;;;;;5094596;28;20255;-88
2021/10/03 01:47:03;;;;;;;4.03;2.80;;;11.90;91.80;;;;;;5096140;28;20292;-87
2021/10/03 01:49:31;;;;;;;5.85;4.03;;;11.90;92.00;;;;;;5092512;28;20197;-87
2021/10/03 01:51:58;;;;;;;6.65;3.00;;;11.90;92.00;;;;;;5097132;28;20280;-87
2021/10/03 01:54:25;;;;;;;2.95;2.75;;;11.80;92.10;;;;;;5095727;28;20216;-87
2021/10/03 01:56:54;;;;;;;2.85;2.55;;;11.70;92.40;;;;;;5096560;28;20256;-89
2021/10/03 01:59:21;;;;;;;3.28;2.95;;;11.70;92.20;;;;;;5093369;28;20204;-88
2021/10/03 02:01:48;;;;;;;3.17;2.88;;;11.70;92.50;;;;;;5091045;28;20229;-87
2021/10/03 02:04:17;;;;;;;3.10;2.70;;;11.70;92.30;;;;;;5090211;28;20202;-88
2021/10/03 02:06:45;;;;;;;3.15;2.60;;;11.70;92.10;;;;;;5091468;28;20236;-87
2021/10/03 02:09:14;;;;;;;3.85;2.72;;;11.70;92.00;;;;;;5096982;28;20264;-88
2021/10/03 02:11:43;;;;;;;3.45;2.67;;;11.70;91.80;;;;;;5094239;28;20289;-87
2021/10/03 02:14:13;;;;;;;4.57;2.50;;;11.70;91.60;;;;;;5089025;28;20221;-87
2021/10/03 02:16:40;;;;;;;4.22;2.60;;;11.70;91.50;;;;;;5099820;28;20292;-87
2021/10/03 02:19:07;;;;;;;4.95;2.90;;;11.70;91.40;;;;;;5092875;28;20207;-87
2021/10/03 02:21:36;;;;;;;3.40;2.63;;;11.70;91.30;;;;;;5095953;28;20264;-87
2021/10/03 02:24:03;;;;;;;3.50;2.78;;;11.70;91.30;;;;;;5091858;28;20213;-87
2021/10/03 02:26:30;;;;;;;2.90;2.60;;;11.70;91.40;;;;;;5096841;28;20234;-87
2021/10/03 02:28:57;;;;;;;3.40;3.10;;;11.70;91.70;;;;;;5096408;28;20272;-88
2021/10/03 02:31:26;;;;;;;3.00;2.75;;;11.70;91.70;;;;;;5097626;28;20350;-87
2021/10/03 02:33:53;;;;;;;2.80;2.50;;;11.70;91.00;;;;;;5094577;28;20301;-87
2021/10/03 02:36:23;;;;;;;2.88;2.58;;;11.70;90.70;;;;;;5096896;28;20280;-87
2021/10/03 02:38:51;;;;;;;3.53;2.70;;;11.80;90.70;;;;;;5092674;28;20284;-87
2021/10/03 02:41:20;;;;;;;3.03;2.83;;;11.70;90.70;;;;;;5094212;28;20220;-87
2021/10/03 02:43:51;;;;;;;5.97;2.97;;;11.70;90.70;;;;;;5095966;28;20201;-87
2021/10/03 02:46:20;;;;;;;3.38;2.88;;;11.70;90.70;;;;;;5094775;28;20275;-88
2021/10/03 02:48:50;;;;;;;3.88;2.47;;;11.70;90.70;;;;;;5097341;28;20208;-87
2021/10/03 02:51:18;;;;;;;3.90;2.47;;;11.80;90.70;;;;;;5099989;28;20303;-87
2021/10/03 02:53:47;;;;;;;2.90;2.55;;;11.80;90.70;;;;;;5091460;28;20219;-89
2021/10/03 02:56:15;;;;;;;3.25;2.30;;;11.80;90.70;;;;;;5098091;28;20684;-88
2021/10/03 02:58:42;;;;;;;4.72;3.20;;;11.70;90.70;;;;;;5097339;28;20220;-87
2021/10/03 03:01:10;;;;;;;3.30;3.00;;;11.70;90.70;;;;;;5101907;28;20303;-87
2021/10/03 03:03:37;;;;;;;4.45;2.33;;;11.70;90.70;;;;;;5099822;28;20272;-87
2021/10/03 03:06:07;;;;;;;3.03;2.50;;;11.80;90.40;;;;;;5098599;28;20323;-87
2021/10/03 03:08:34;;;;;;;3.72;3.20;;;11.80;90.10;;;;;;5093046;28;20203;-88
2021/10/03 03:11:02;;;;;;;2.60;2.40;;;11.70;90.20;;;;;;5101635;28;20272;-87
2021/10/03 03:13:29;;;;;;;2.92;2.60;;;11.70;90.50;;;;;;5088575;28;20225;-87
2021/10/03 03:15:57;;;;;;;3.38;2.72;;;11.70;90.70;;;;;;5093405;28;20264;-87
2021/10/03 03:18:24;;;;;;;2.88;2.65;;;11.70;90.70;;;;;;5095995;28;20327;-87
2021/10/03 03:20:52;;;;;;;4.20;2.70;;;11.70;90.70;;;;;;5097511;28;20264;-87
2021/10/03 03:23:20;;;;;;;3.42;2.60;;;11.70;90.30;;;;;;5097051;28;20207;-87
2021/10/03 03:25:47;;;;;;;2.50;2.30;;;11.70;90.30;;;;;;5091956;28;20192;-87
2021/10/03 03:28:15;;;;;;;3.78;2.47;;;11.70;90.70;;;;;;5094943;28;20292;-87
2021/10/03 03:30:42;;;;;;;3.42;2.70;;;11.70;90.30;;;;;;5101640;28;20257;-87
2021/10/03 03:33:09;;;;;;;2.97;2.67;;;11.70;90.10;;;;;;5096834;28;20297;-87
2021/10/03 03:35:37;;;;;;;3.35;2.60;;;11.70;90.00;;;;;;5096856;28;20288;-87
2021/10/03 03:38:04;;;;;;;5.22;2.42;;;11.70;90.10;;;;;;5094097;28;20291;-87
2021/10/03 03:40:32;;;;;;;5.03;3.17;;;11.60;90.10;;;;;;5097378;28;20279;-89
2021/10/03 03:42:59;;;;;;;3.90;2.90;;;11.70;90.10;;;;;;5097356;28;20220;-87
2021/10/03 03:45:26;;;;;;;3.53;2.83;;;11.60;89.60;;;;;;5097075;28;20216;-88
2021/10/03 03:47:53;;;;;;;3.70;2.90;;;11.60;89.30;;;;;;5094179;28;20300;-87
2021/10/03 03:50:20;;;;;;;4.78;3.10;;;11.70;89.20;;;;;;5099984;28;20287;-88
2021/10/03 03:52:47;;;;;;;3.20;2.78;;;11.70;89.40;;;;;;5099366;28;20232;-87
2021/10/03 03:55:15;;;;;;;3.22;2.92;;;11.60;89.60;;;;;;5084753;28;20289;-87
2021/10/03 03:57:43;;;;;;;2.60;2.40;;;11.60;89.10;;;;;;5095803;28;20248;-87
2021/10/03 04:00:11;;;;;;;3.60;2.42;;;11.60;88.70;;;;;;5100406;28;20200;-86
2021/10/03 04:02:39;;;;;;;3.22;2.83;;;11.60;88.70;;;;;;5100371;28;20304;-87
2021/10/03 04:05:07;;;;;;;3.45;3.08;;;11.60;88.90;;;;;;5101133;28;20746;-87
2021/10/03 04:07:35;;;;;;;4.68;3.00;;;11.50;88.80;;;;;;5094614;28;20222;-87
2021/10/03 04:10:02;;;;;;;2.70;2.42;;;11.50;89.10;;;;;;5095025;28;20264;-88
2021/10/03 04:12:30;;;;;;;2.80;2.42;;;11.60;88.70;;;;;;5095205;28;20270;-87
2021/10/03 04:14:58;;;;;;;4.15;2.78;;;11.50;89.00;;;;;;5088249;28;20196;-87
2021/10/03 04:17:25;;;;;;;3.10;2.60;;;11.60;89.60;;;;;;5093066;28;20223;-87
2021/10/03 04:19:52;;;;;;;2.95;2.60;;;11.60;89.20;;;;;;5096308;28;20518;-87
2021/10/03 04:22:19;;;;;;;3.88;2.55;;;11.60;89.00;;;;;;5093024;28;20227;-87
2021/10/03 04:24:46;;;;;;;4.35;2.78;;;11.50;88.30;;;;;;5084898;28;20235;-88
2021/10/03 04:27:13;;;;;;;3.67;2.92;;;11.50;89.20;;;;;;5091324;28;20224;-87
2021/10/03 04:29:40;;;;;;;3.28;2.67;;;11.50;89.40;;;;;;5097151;28;20228;-87
2021/10/03 04:32:09;;;;;;;2.70;2.50;;;11.50;89.50;;;;;;5095618;28;20669;-87
2021/10/03 04:34:36;;;;;;;2.92;2.72;;;11.40;89.70;;;;;;5093696;28;20300;-87
2021/10/03 04:37:03;;;;;;;2.83;2.63;;;11.50;89.10;;;;;;5103128;28;20236;-89
2021/10/03 04:39:31;;;;;;;2.80;2.60;;;11.50;88.50;;;;;;5100382;28;20244;-87
2021/10/03 04:41:59;;;;;;;2.67;2.45;;;11.50;88.50;;;;;;5104696;28;20604;-87
2021/10/03 04:44:26;;;;;;;2.80;2.60;;;11.50;87.80;;;;;;5098082;28;20224;-88
2021/10/03 04:46:53;;;;;;;5.35;2.90;;;11.50;88.00;;;;;;5099922;28;20224;-88
2021/10/03 04:49:22;;;;;;;3.55;2.67;;;11.50;87.20;;;;;;5099843;28;20220;-87
2021/10/03 04:51:49;;;;;;;3.13;2.75;;;11.50;87.20;;;;;;5095968;28;20292;-87
2021/10/03 04:54:16;;;;;;;3.88;2.70;;;11.50;87.10;;;;;;5088256;28;20278;-88
2021/10/03 04:56:43;;;;;;;3.47;2.53;;;11.50;87.10;;;;;;5092190;28;20291;-90
2021/10/03 04:59:11;;;;;;;2.63;2.42;;;11.50;87.40;;;;;;5087121;28;20331;-87
2021/10/03 05:01:37;;;;;;;3.50;3.13;;;11.50;88.60;;;;;;5096140;28;20263;-87
2021/10/03 05:04:04;;;;;;;3.20;2.90;;;11.50;87.20;;;;;;5098992;28;20207;-87
2021/10/03 05:06:33;;;;;;;3.10;2.80;;;11.50;87.40;;;;;;5100310;28;20231;-88
2021/10/03 05:09:00;;;;;;;3.08;2.60;;;11.50;86.50;;;;;;5103082;28;20264;-87
2021/10/03 05:11:27;;;;;;;2.72;2.53;;;11.50;86.20;;;;;;5093961;28;20704;-87
2021/10/03 05:13:54;;;;;;;4.53;2.60;;;11.50;86.10;;;;;;5096850;28;20220;-87
2021/10/03 05:16:21;;;;;;;3.45;2.45;;;11.50;85.80;;;;;;5099895;28;20280;-88
2021/10/03 05:18:48;;;;;;;3.33;2.70;;;11.60;84.10;;;;;;5101881;28;20287;-87
2021/10/03 05:21:16;;;;;;;3.20;2.55;;;11.60;84.70;;;;;;5093985;28;20225;-87
2021/10/03 05:23:44;;;;;;;3.47;2.72;;;11.60;84.70;;;;;;5103424;28;20240;-87
2021/10/03 05:26:12;;;;;;;3.10;2.75;;;11.60;85.30;;;;;;5100051;28;20280;-87
2021/10/03 05:28:39;;;;;;;2.85;2.63;;;11.60;85.50;;;;;;5101821;28;20291;-87
2021/10/03 05:31:06;;;;;;;2.65;2.42;;;11.70;85.00;;;;;;5098473;28;20307;-88
2021/10/03 05:33:33;;;;;;;2.80;2.53;;;11.70;85.10;;;;;;5099848;28;20315;-87
2021/10/03 05:36:00;;;;;;;3.15;2.90;;;11.70;82.80;;;;;;5096593;27;20196;-88
2021/10/03 05:38:27;;;;;;;4.32;2.67;;;11.80;83.20;;;;;;5095742;28;20229;-88
2021/10/03 05:40:56;;;;;;;3.15;2.83;;;11.80;83.60;;;;;;5106634;28;20268;-87
2021/10/03 05:43:22;;;;;;;2.95;2.65;;;12.20;83.70;;;;;;5098865;28;20252;-87
2021/10/03 05:45:49;;;;;;;3.70;2.72;;;12.50;81.40;;;;;;5100945;28;20260;-87
2021/10/03 05:48:19;;;;;;;3.17;2.88;;;12.80;80.20;;;;;;5104124;28;20602;-88
2021/10/03 05:50:46;;;;;;;2.95;2.60;;;13.00;78.50;;;;;;5102629;28;20209;-87
2021/10/03 05:53:26;;;;;;;3.10;2.65;;;13.30;76.10;;;;;;5098450;28;20204;-87
2021/10/03 05:56:05;;;;;;;3.20;2.85;;;13.40;76.20;;;;;;5104468;28;20200;-88
2021/10/03 05:58:32;;;;;;;3.60;2.97;;;13.60;76.20;;;;;;5103782;28;20303;-87
2021/10/03 06:01:00;;;;;;;3.13;2.78;;;13.80;73.60;;;;;;5103652;28;20201;-87
2021/10/03 06:03:45;;;;;;;3.53;2.63;;;13.60;68.40;;;;;;5097242;28;20261;-87
2021/10/03 06:09:04;;;;;;;2.38;2.08;;;13.70;73.70;;;;;;5094555;28;20208;-87
2021/10/03 06:11:33;;;;;;;2.63;2.42;;;14.00;70.20;;;;;;5102449;28;20248;-87
2021/10/03 06:14:00;;;;;;;2.97;2.47;;;14.00;69.80;;;;;;5102168;28;20251;-87
2021/10/03 06:16:35;;;;;;;2.45;2.25;;;14.10;70.80;;;;;;5105191;28;20225;-89
2021/10/03 06:19:02;;;;;;;2.78;2.58;;;14.20;68.10;;;;;;5104212;28;20204;-89
2021/10/03 06:21:30;;;;;;;4.30;2.67;;;14.10;69.30;;;;;;5101423;28;20236;-88
2021/10/03 06:23:57;;;;;;;2.78;2.55;;;14.10;69.70;;;;;;5102421;28;20298;-87
2021/10/03 06:26:25;;;;;;;3.28;2.95;;;14.10;69.50;;;;;;5102704;28;20220;-88
2021/10/03 06:28:53;;;;;;;3.25;2.60;;;14.30;69.90;;;;;;5101713;28;20228;-87
2021/10/03 06:31:20;;;;;;;2.97;2.67;;;14.30;68.80;;;;;;5093596;28;20220;-88
2021/10/03 06:33:47;;;;;;;2.90;2.60;;;14.40;67.30;;;;;;5106769;28;20655;-87
2021/10/03 06:36:31;;;;;;;2.72;2.53;;;14.40;69.30;;;;;;5104454;28;20584;-87
2021/10/03 06:38:58;;;;;;;2.85;2.60;;;14.30;68.80;;;;;;5101660;28;20248;-87
2021/10/03 06:41:25;;;;;;;2.90;2.47;;;14.30;68.50;;;;;;5103757;28;20281;-88
2021/10/03 06:43:54;;;;;;;2.42;2.22;;;14.30;68.40;;;;;;5102450;28;20276;-88
2021/10/03 06:46:22;;;;;;;4.50;2.90;;;14.40;70.30;;;;;;5093700;28;20220;-88
2021/10/03 06:48:50;;;;;;;2.45;2.25;;;14.50;70.60;;;;;;5100368;28;20256;-87
2021/10/03 06:51:17;;;;;;;4.97;2.97;;;14.60;68.40;;;;;;5095902;28;20284;-87
2021/10/03 06:53:44;;;;;;;3.03;2.72;;;14.80;69.20;;;;;;5094146;28;20212;-87
2021/10/03 06:56:12;;;;;;;3.10;2.80;;;14.90;66.70;;;;;;5098990;28;20674;-89
2021/10/03 06:58:39;;;;;;;4.75;2.35;;;14.90;66.90;;;;;;5091959;28;20310;-88
2021/10/03 07:01:07;;;;;;;2.88;2.58;;;14.90;64.30;;;;;;5091795;28;20236;-87
2021/10/03 07:03:34;;;;;;;3.45;2.58;;;14.90;66.30;;;;;;5088761;28;20201;-88
2021/10/03 07:06:01;;;;;;;3.33;3.03;;;14.90;67.00;;;;;;5083620;28;20210;-88
2021/10/03 07:08:28;;;;;;;2.80;2.55;;;14.80;67.20;;;;;;5084631;28;20201;-89
2021/10/03 07:10:55;;;;;;;2.72;2.53;;;14.80;64.00;;;;;;5087578;28;20265;-88
2021/10/03 07:13:22;;;;;;;2.80;2.60;;;14.80;66.70;;;;;;5092956;28;20285;-87
2021/10/03 07:15:49;;;;;;;3.50;2.72;;;14.90;65.60;;;;;;5089689;28;20272;-88
2021/10/03 07:18:17;;;;;;;3.55;2.72;;;14.90;67.70;;;;;;5094357;28;20664;-86
2021/10/03 07:20:45;;;;;;;3.33;2.70;;;15.00;67.80;;;;;;5085185;28;20716;-88
2021/10/03 07:23:11;;;;;;;2.97;2.70;;;15.10;66.90;;;;;;5081103;28;20235;-90
2021/10/03 07:25:39;;;;;;;2.67;2.47;;;15.20;65.70;;;;;;5082630;28;20237;-90
2021/10/03 07:28:06;;;;;;;2.88;2.58;;;15.40;66.60;;;;;;5086724;28;20215;-89
2021/10/03 07:30:33;;;;;;;2.88;2.67;;;15.40;62.70;;;;;;5082955;28;20203;-90
2021/10/03 07:33:00;;;;;;;2.42;2.22;;;15.50;65.20;;;;;;5084742;28;20588;-88
2021/10/03 07:35:28;;;;;;;2.60;2.30;;;15.50;64.10;;;;;;5087286;28;20196;-88
2021/10/03 07:38:02;;;;;;;3.28;2.65;;;15.60;62.10;;;;;;5091958;28;20220;-89
2021/10/03 07:40:30;;;;;;;3.75;2.50;;;15.60;63.80;;;;;;5091277;28;20219;-89
2021/10/03 07:42:57;;;;;;;2.70;2.50;;;15.70;59.40;;;;;;5091685;28;20220;-89
2021/10/03 07:45:24;;;;;;;2.50;2.20;;;15.90;64.20;;;;;;5089808;28;20284;-88
2021/10/03 07:47:55;;;;;;;3.40;2.65;;;15.90;62.70;;;;;;5090287;28;20240;-89
2021/10/03 07:50:21;;;;;;;3.00;2.70;;;16.00;62.90;;;;;;5087764;28;20197;-87
2021/10/03 07:52:50;;;;;;;14.05;12.27;;;16.10;61.80;;;;;;5089305;28;20232;-87
2021/10/03 07:55:17;;;;;;;2.95;2.30;;;16.30;58.10;;;;;;5083383;28;20254;-88
2021/10/03 07:57:45;;;;;;;2.75;2.55;;;16.50;58.10;;;;;;5086324;28;20619;-89
2021/10/03 08:00:12;;;;;;;3.10;2.42;;;16.60;55.00;;;;;;5091724;28;20224;-90
2021/10/03 08:02:40;;;;;;;3.58;3.28;;;16.70;54.90;;;;;;5092363;28;20644;-88
2021/10/03 08:05:08;;;;;;;3.10;2.80;;;16.80;56.80;;;;;;5087958;28;20204;-89
2021/10/03 08:07:35;;;;;;;2.22;2.10;;;16.90;53.10;;;;;;5098028;28;20228;-86
2021/10/03 08:10:07;;;;;;;3.63;2.63;;;17.00;53.20;;;;;;5092832;28;20204;-87
2021/10/03 08:12:34;;;;;;;3.60;2.70;;;17.20;53.30;;;;;;5095121;28;20293;-89
2021/10/03 08:15:01;;;;;;;3.58;2.60;;;17.20;54.40;;;;;;5096198;28;20233;-88
2021/10/03 08:17:28;;;;;;;3.00;2.67;;;17.30;53.40;;;;;;5087145;28;20228;-88
2021/10/03 08:19:55;;;;;;;2.72;2.53;;;17.30;53.40;;;;;;5095217;28;20227;-88
2021/10/03 08:22:23;;;;;;;3.58;2.53;;;17.40;53.60;;;;;;5084867;28;20696;-89
2021/10/03 08:24:50;;;;;;;2.97;2.63;;;17.60;49.20;;;;;;5091317;28;20197;-90
2021/10/03 08:27:19;;;;;;;3.08;2.67;;;17.70;50.40;;;;;;5094535;28;20226;-88
2021/10/03 08:29:47;;;;;;;2.80;2.60;;;17.90;51.50;;;;;;5085423;28;20576;-88
2021/10/03 08:32:14;;;;;;;3.67;2.92;;;17.90;50.40;;;;;;5083961;28;20303;-89
2021/10/03 08:34:41;;;;;;;2.80;2.60;;;18.10;49.80;;;;;;5093955;28;20207;-88
2021/10/03 08:37:07;;;;;;;2.75;2.55;;;18.30;47.60;;;;;;5093817;28;20701;-88
2021/10/03 08:39:35;;;;;;;2.72;2.50;;;18.50;46.20;;;;;;5094826;28;20234;-89
2021/10/03 08:42:04;;;;;;;3.33;2.33;;;18.70;44.60;;;;;;5090595;28;20602;-89
2021/10/03 08:44:32;;;;;;;3.40;2.50;;;18.80;44.90;;;;;;5085539;28;20189;-89
2021/10/03 08:46:59;;;;;;;3.20;2.60;;;18.90;44.70;;;;;;5087011;28;20314;-89
2021/10/03 08:49:26;;;;;;;2.88;2.60;;;19.10;40.70;;;;;;5085438;28;20243;-88
2021/10/03 08:51:53;;;;;;;3.13;2.53;;;19.30;40.00;;;;;;5087317;28;20220;-89
2021/10/03 08:54:21;;;;;;;2.70;2.50;;;19.50;39.80;;;;;;5097342;28;20209;-89
2021/10/03 08:56:48;;;;;;;3.05;2.33;;;19.70;39.60;;;;;;5101212;28;20288;-86
2021/10/03 08:59:15;;;;;;;3.53;2.40;;;20.00;39.60;;;;;;5099175;28;20217;-85
2021/10/03 09:01:51;;;;;;;2.78;2.42;;;20.20;39.50;;;;;;5096567;28;20248;-85
2021/10/03 09:04:29;;;;;;;5.68;2.13;;;20.50;37.20;;;;;;5094767;28;20211;-87
2021/10/03 09:07:05;;;;;;;3.55;2.60;;;20.80;35.40;;;;;;5099536;28;20236;-87
2021/10/03 09:09:56;;;;;;;2.90;2.60;;;21.20;37.70;;;;;;5089938;28;20597;-87
2021/10/03 09:12:25;;;;;;;2.35;2.15;;;22.10;33.50;;;;;;5090096;28;20645;-86
2021/10/03 09:14:52;;;;;;;2.60;2.40;;;22.70;29.80;;;;;;5086939;28;20201;-86
2021/10/03 09:17:21;;;;;;;3.05;2.47;;;23.50;27.60;;;;;;5094074;28;20232;-83
2021/10/03 09:20:07;;;;;;;4.47;2.50;;;23.70;27.70;;;;;;5092789;28;20234;-86
2021/10/03 09:22:54;;;;;;;5.22;2.55;;;24.60;26.10;;;;;;5084314;28;20224;-84
2021/10/03 09:25:38;;;;;;;2.80;2.60;;;25.90;22.20;;;;;;5091197;28;20192;-85
2021/10/03 09:28:07;;;;;;;2.92;2.72;;;27.10;19.90;;;;;;5088190;28;20219;-84
2021/10/03 09:30:35;;;;;;;2.85;2.65;;;28.40;18.70;;;;;;5089982;28;20673;-85
2021/10/03 09:33:03;;;;;;;3.10;2.90;;;29.50;14.80;;;;;;5098991;28;20291;-85
2021/10/03 09:35:33;;;;;;;3.17;2.97;;;29.90;14.70;;;;;;5102098;28;20196;-84
2021/10/03 09:38:00;;;;;;;2.95;2.75;;;30.10;13.50;;;;;;5105290;28;20286;-86
2021/10/03 09:40:27;;;;;;;3.47;2.90;;;30.60;14.70;;;;;;5091697;28;20715;-84
2021/10/03 09:42:59;;;;;;;2.95;2.75;;;31.10;14.20;;;;;;5092383;28;20698;-85
2021/10/03 09:45:26;;;;;;;3.50;3.30;;;31.00;10.80;;;;;;5092437;28;20196;-85
2021/10/03 09:48:03;;;;;;;3.25;2.90;;;31.70;12.30;;;;;;5088393;28;20227;-85
2021/10/03 09:50:31;;;;;;;3.53;3.33;;;31.30;10.70;;;;;;5095833;28;20210;-85
2021/10/03 09:52:59;;;;;;;3.30;3.00;;;31.50;11.30;;;;;;5091329;28;20588;-85
2021/10/03 09:55:26;;;;;;;2.95;2.75;;;31.60;10.00;;;;;;5090477;28;20208;-87
2021/10/03 09:57:55;;;;;;;3.20;3.00;;;31.00;10.00;;;;;;5092254;28;20227;-85
2021/10/03 10:00:26;;;;;;;3.28;2.97;;;30.70;11.20;;;;;;5084776;28;20627;-86
2021/10/03 10:02:54;;;;;;;4.43;3.08;;;29.50;12.60;;;;;;5082040;28;20227;-85
2021/10/03 10:05:24;;;;;;;2.97;2.58;;;29.30;14.40;;;;;;5083095;28;20548;-86
2021/10/03 10:07:51;;;;;;;3.10;2.80;;;29.30;15.20;;;;;;5083296;28;20232;-85
2021/10/03 10:10:20;;;;;;;2.90;2.70;;;28.20;14.00;;;;;;5090886;28;20200;-83
2021/10/03 10:12:53;;;;;;;3.40;3.15;;;27.60;15.20;;;;;;5084882;28;20236;-84
2021/10/03 10:15:23;;;;;;;3.40;2.70;;;28.00;16.20;;;;;;5089553;28;20200;-85
2021/10/03 10:17:51;;;;;;;3.00;2.75;;;28.40;15.80;;;;;;5090076;28;20236;-83
2021/10/03 10:20:43;;;;;;;3.10;2.90;;;28.10;15.70;;;;;;5087621;28;20219;-83
2021/10/03 10:23:13;;;;;;;3.58;3.30;;;28.30;16.90;;;;;;5067695;28;20215;-83
2021/10/03 10:25:45;;;;;;;2.80;2.60;;;28.20;16.40;;;;;;5083804;28;20278;-84
2021/10/03 10:28:19;;;;;;;3.28;2.80;;;28.20;15.80;;;;;;5084535;28;20216;-87
2021/10/03 10:31:04;;;;;;;4.80;3.00;;;28.00;18.40;;;;;;5086087;28;20232;-84
2021/10/03 10:34:10;;;;;;;3.78;2.88;;;28.20;17.30;;;;;;5087357;28;20693;-85
2021/10/03 10:36:52;;;;;;;3.05;2.85;;;29.10;18.00;;;;;;5094133;28;20603;-87
2021/10/03 10:39:22;;;;;;;3.33;3.00;;;29.20;13.70;;;;;;5090439;28;20238;-86
2021/10/03 10:41:51;;;;;;;3.40;3.10;;;30.40;14.80;;;;;;5089377;28;20220;-85
2021/10/03 10:44:35;;;;;;;3.33;3.10;;;31.10;14.50;;;;;;5090784;28;20200;-85
2021/10/03 10:47:18;;;;;;;3.35;3.05;;;31.30;13.80;;;;;;5080920;28;20227;-84
2021/10/03 10:49:47;;;;;;;3.88;3.33;;;31.40;11.70;;;;;;5082629;28;20209;-85
2021/10/03 10:52:34;;;;;;;15.40;6.18;;;31.30;13.00;;;;;;5092140;27;20874;-84
2021/10/03 10:55:21;;;;;;;4.45;3.65;;;31.50;11.80;;;;;;5078262;28;20205;-84
2021/10/03 10:58:17;;;;;;;3.25;3.00;;;31.20;13.50;;;;;;5084264;28;20231;-84
2021/10/03 11:00:56;;;;;;;2.97;2.78;;;29.40;12.50;;;;;;5080909;28;20239;-86
2021/10/03 11:04:03;;;;;;;5.15;2.45;;;28.70;16.00;;;;;;5082411;28;20216;-86
2021/10/03 11:07:01;;;;;;;2.90;2.67;;;27.80;15.50;;;;;;5085119;28;20224;-83
2021/10/03 11:09:32;;;;;;;2.88;2.67;;;27.00;16.50;;;;;;5086530;28;20199;-84
2021/10/03 11:12:02;;;;;;;2.85;2.63;;;26.70;18.00;;;;;;5082282;28;20228;-84
2021/10/03 11:14:35;;;;;;;2.90;2.70;;;26.30;16.60;;;;;;5087314;28;20196;-80
2021/10/03 11:17:06;;;;;;;3.20;2.80;;;25.80;16.70;;;;;;5084652;28;20310;-80
2021/10/03 11:19:39;;;;;;;3.88;2.72;;;25.70;18.00;;;;;;5085140;28;20231;-81
2021/10/03 11:22:07;;;;;;;3.55;3.25;;;25.80;17.80;;;;;;5091291;28;20704;-83
2021/10/03 11:24:38;;;;;;;3.80;2.30;;;26.00;20.80;;;;;;5098141;28;20218;-81
2021/10/03 11:27:07;;;;;;;5.88;4.60;;;26.00;17.60;;;;;;5088955;28;20212;-82
2021/10/03 11:29:36;;;;;;;2.85;2.63;;;25.90;18.10;;;;;;5096595;28;20204;-84
2021/10/03 11:32:06;;;;;;;8.52;4.57;;;26.10;18.90;;;;;;5091641;28;20216;-82
2021/10/03 11:34:36;;;;;;;11.40;6.93;;;26.00;18.90;;;;;;5091767;28;20204;-84
2021/10/03 11:37:05;;;;;;;3.90;2.22;;;25.90;19.70;;;;;;5090812;28;20220;-83
2021/10/03 11:39:49;;;;;;;3.92;2.42;;;25.70;16.80;;;;;;5087653;28;20196;-83
2021/10/03 11:42:19;;;;;;;2.78;2.50;;;25.80;17.10;;;;;;5091190;28;20224;-85
2021/10/03 11:44:46;;;;;;;3.03;2.40;;;26.00;17.40;;;;;;5087888;28;20200;-83
2021/10/03 11:47:15;;;;;;;3.13;2.55;;;26.10;17.10;;;;;;5085535;28;20224;-85
2021/10/03 11:49:45;;;;;;;2.85;2.22;;;26.00;16.60;;;;;;5092519;28;20212;-86
2021/10/03 11:52:14;;;;;;;2.33;2.13;;;26.00;17.80;;;;;;5089511;28;20238;-85
2021/10/03 11:54:48;;;;;;;2.75;2.55;;;25.90;17.80;;;;;;5077272;28;20675;-85
2021/10/03 11:57:27;;;;;;;3.00;2.45;;;26.00;17.70;;;;;;5087094;28;20247;-87
2021/10/03 12:00:21;;;;;;;2.55;2.35;;;26.10;18.70;;;;;;5093943;28;20232;-86
2021/10/03 12:02:49;;;;;;;2.75;2.55;;;25.60;17.90;;;;;;5089942;28;20235;-83
2021/10/03 12:05:22;;;;;;;2.78;2.58;;;25.50;16.80;;;;;;5097851;28;20236;-88
2021/10/03 12:08:07;;;;;;;2.42;2.20;;;25.60;17.60;;;;;;5095361;28;20377;-86
2021/10/03 12:10:38;;;;;;;4.95;2.47;;;25.50;17.50;;;;;;5086693;28;20211;-84
2021/10/03 12:13:12;;;;;;;2.08;1.90;;;25.60;18.80;;;;;;5081206;28;20221;-88
2021/10/03 12:15:51;;;;;;;2.38;2.00;;;25.80;18.50;;;;;;5089789;28;20212;-85
2021/10/03 12:18:40;;;;;;;3.47;3.17;;;25.80;16.40;;;;;;5081986;28;20231;-85
2021/10/03 12:21:09;;;;;;;3.00;2.13;;;26.00;17.90;;;;;;5082311;28;20224;-85
2021/10/03 12:23:55;;;;;;;3.10;2.40;;;26.20;16.90;;;;;;5080924;28;20220;-85
2021/10/03 12:26:30;;;;;;;4.25;2.40;;;26.30;16.60;;;;;;5079358;28;20232;-86
2021/10/03 12:29:18;;;;;;;2.58;2.20;;;26.20;17.20;;;;;;5083374;28;20219;-84
2021/10/03 12:31:52;;;;;;;2.40;2.20;;;26.10;17.40;;;;;;5072340;28;20251;-82
2021/10/03 12:34:49;;;;;;;3.28;2.13;;;26.40;18.10;;;;;;5090251;28;20619;-83
2021/10/03 12:37:18;;;;;;;2.30;2.10;;;26.50;17.40;;;;;;5085543;28;20212;-81
2021/10/03 12:39:49;;;;;;;2.50;2.30;;;26.40;16.50;;;;;;5093555;28;20204;-82
2021/10/03 12:42:19;;;;;;;2.38;2.17;;;26.20;16.00;;;;;;5084912;28;20266;-82
2021/10/03 12:44:49;;;;;;;3.05;2.28;;;26.20;16.70;;;;;;5088203;28;20212;-84
2021/10/03 12:47:17;;;;;;;2.80;2.40;;;26.00;17.40;;;;;;5083937;28;20300;-83
2021/10/03 12:49:45;;;;;;;3.55;2.40;;;25.90;19.10;;;;;;5087989;28;20760;-85
2021/10/03 12:52:14;;;;;;;2.30;2.10;;;25.80;18.70;;;;;;5086865;28;20222;-82
2021/10/03 12:54:42;;;;;;;3.38;2.60;;;25.70;18.00;;;;;;5088512;28;20204;-86
2021/10/03 12:57:09;;;;;;;2.50;2.30;;;25.50;19.50;;;;;;5092127;28;20224;-84
2021/10/03 12:59:38;;;;;;;2.60;2.40;;;25.40;19.10;;;;;;5090896;28;20254;-88
2021/10/03 13:02:06;;;;;;;2.63;2.40;;;25.20;18.70;;;;;;5092323;27;20236;-88